Time;durP1;ratioP1;P1;durP2;ratioP2;P2;SDS_P1;SDS_P2;PMS_P1;PMS_P2;Temp;Humidity;BMP_temperature;BMP_pressure;BME280_temperature;BME280_humidity;BME280_pressure;Samples;Min_cycle;Max_cycle;Signal;HPM_P1;HPM_P2
2023/12/12 00:01:22;;;;;;;;;14.00;14.00;;;;;;;;5042912;28;45237;-75
2023/12/12 00:03:47;;;;;;;;;18.50;17.00;;;;;;;;5034440;28;45348;-76
2023/12/12 00:06:12;;;;;;;;;20.00;17.75;;;;;;;;5035677;28;46525;-76
2023/12/12 00:08:37;;;;;;;;;23.75;19.00;;;;;;;;5042527;28;45228;-76
2023/12/12 00:11:04;;;;;;;;;21.75;17.25;;;;;;;;5036393;28;45279;-75
2023/12/12 00:13:29;;;;;;;;;23.25;21.50;;;;;;;;5039170;28;45817;-76
2023/12/12 00:15:54;;;;;;;;;24.00;20.00;;;;;;;;5039932;28;46650;-76
2023/12/12 00:18:20;;;;;;;;;22.25;18.25;;;;;;;;5038976;28;45245;-76
2023/12/12 00:20:45;;;;;;;;;17.00;15.00;;;;;;;;5040524;28;45366;-75
2023/12/12 00:23:10;;;;;;;;;18.00;15.75;;;;;;;;5039798;28;45593;-75
2023/12/12 00:25:35;;;;;;;;;21.00;18.50;;;;;;;;5041248;28;46646;-76
2023/12/12 00:28:00;;;;;;;;;25.00;19.75;;;;;;;;5040580;28;45372;-76
2023/12/12 00:30:26;;;;;;;;;17.75;14.75;;;;;;;;5041293;28;45526;-76
2023/12/12 00:32:51;;;;;;;;;17.25;17.25;;;;;;;;5036227;28;45960;-76
2023/12/12 00:35:16;;;;;;;;;22.75;21.25;;;;;;;;5039214;28;45727;-76
2023/12/12 00:37:41;;;;;;;;;20.25;17.50;;;;;;;;5035654;28;45463;-76
2023/12/12 00:40:09;;;;;;;;;23.00;19.50;;;;;;;;5028485;28;45588;-76
2023/12/12 00:42:34;;;;;;;;;24.00;19.75;;;;;;;;5037026;28;45487;-76
2023/12/12 00:44:59;;;;;;;;;22.25;18.75;;;;;;;;5037667;28;45079;-76
2023/12/12 00:47:24;;;;;;;;;22.25;22.00;;;;;;;;5037872;28;45347;-76
2023/12/12 00:49:49;;;;;;;;;19.00;19.00;;;;;;;;5038099;28;45169;-76
2023/12/12 00:52:14;;;;;;;;;18.50;18.50;;;;;;;;5038488;28;45374;-76
2023/12/12 00:54:40;;;;;;;;;20.25;20.25;;;;;;;;5038033;28;45581;-76
2023/12/12 00:57:05;;;;;;;;;28.50;21.75;;;;;;;;5037388;28;45406;-76
2023/12/12 00:59:30;;;;;;;;;23.25;21.25;;;;;;;;5037977;28;45122;-76
2023/12/12 01:01:55;;;;;;;;;21.75;20.00;;;;;;;;5036766;28;45419;-76
2023/12/12 01:04:20;;;;;;;;;21.50;20.25;;;;;;;;5030594;28;46582;-76
2023/12/12 01:06:46;;;;;;;;;19.50;18.00;;;;;;;;5050982;28;45212;-76
2023/12/12 01:09:11;;;;;;;;;22.00;20.25;;;;;;;;5039036;28;45191;-76
2023/12/12 01:11:36;;;;;;;;;20.75;18.75;;;;;;;;5036504;28;45542;-76
2023/12/12 01:14:01;;;;;;;;;18.33;17.00;;;;;;;;5038614;28;45391;-76
2023/12/12 01:16:26;;;;;;;;;19.50;17.00;;;;;;;;5039139;28;45479;-76
2023/12/12 01:18:52;;;;;;;;;22.50;18.25;;;;;;;;5040480;28;45224;-76
2023/12/12 01:21:17;;;;;;;;;20.25;18.75;;;;;;;;5039330;28;45283;-76
2023/12/12 01:23:46;;;;;;;;;22.00;17.00;;;;;;;;5036511;28;45438;-76
2023/12/12 01:26:11;;;;;;;;;18.75;17.25;;;;;;;;5041690;28;45494;-75
2023/12/12 01:28:36;;;;;;;;;19.50;16.25;;;;;;;;5039739;28;45425;-76
2023/12/12 01:31:01;;;;;;;;;23.50;18.75;;;;;;;;5039782;28;45244;-76
2023/12/12 01:33:27;;;;;;;;;20.67;16.33;;;;;;;;5037058;28;45384;-75
2023/12/12 01:35:52;;;;;;;;;17.00;16.33;;;;;;;;5037004;28;45511;-76
2023/12/12 01:38:17;;;;;;;;;18.67;17.33;;;;;;;;5035931;28;45341;-75
2023/12/12 01:40:43;;;;;;;;;21.00;15.33;;;;;;;;5038438;28;46343;-75
2023/12/12 01:43:08;;;;;;;;;19.00;15.50;;;;;;;;5036236;28;46296;-75
2023/12/12 01:45:33;;;;;;;;;19.00;14.67;;;;;;;;5037190;28;45311;-76
2023/12/12 01:47:59;;;;;;;;;21.00;20.00;;;;;;;;5039461;28;45304;-76
2023/12/12 01:50:24;;;;;;;;;21.25;19.25;;;;;;;;5036838;28;45225;-75
2023/12/12 01:52:50;;;;;;;;;19.75;17.50;;;;;;;;5038096;28;45488;-75
2023/12/12 01:55:15;;;;;;;;;17.67;17.00;;;;;;;;5038181;28;45320;-75
2023/12/12 01:57:40;;;;;;;;;19.75;15.25;;;;;;;;5038191;28;45379;-76
2023/12/12 02:00:06;;;;;;;;;16.00;14.00;;;;;;;;5036773;28;45398;-76
2023/12/12 02:02:31;;;;;;;;;17.00;12.00;;;;;;;;5036257;28;45310;-76
2023/12/12 02:04:57;;;;;;;;;20.67;18.00;;;;;;;;5030936;28;45530;-76
2023/12/12 02:07:23;;;;;;;;;18.33;18.00;;;;;;;;5040367;28;45250;-76
2023/12/12 02:09:48;;;;;;;;;21.33;14.67;;;;;;;;5038365;28;46746;-76
2023/12/12 02:12:13;;;;;;;;;14.67;11.33;;;;;;;;5037209;28;46103;-75
2023/12/12 02:14:39;;;;;;;;;15.00;13.00;;;;;;;;5038700;28;45453;-76
2023/12/12 02:17:04;;;;;;;;;16.67;14.67;;;;;;;;5039072;28;45314;-76
2023/12/12 02:19:29;;;;;;;;;14.33;14.00;;;;;;;;5039332;28;45380;-77
2023/12/12 02:21:55;;;;;;;;;16.67;15.00;;;;;;;;5037751;28;46375;-76
2023/12/12 02:24:20;;;;;;;;;12.33;10.67;;;;;;;;5036281;28;45335;-76
2023/12/12 02:26:45;;;;;;;;;18.33;14.67;;;;;;;;5038849;28;45232;-76
2023/12/12 02:29:11;;;;;;;;;17.00;16.00;;;;;;;;5039146;28;45272;-76
2023/12/12 02:31:36;;;;;;;;;16.67;15.67;;;;;;;;5037958;28;46481;-76
2023/12/12 02:34:01;;;;;;;;;17.00;15.33;;;;;;;;5037959;28;45490;-76
2023/12/12 02:36:26;;;;;;;;;19.67;14.33;;;;;;;;5038212;28;45523;-76
2023/12/12 02:38:52;;;;;;;;;17.00;15.33;;;;;;;;5038686;28;45489;-76
2023/12/12 02:41:18;;;;;;;;;15.33;13.67;;;;;;;;5037601;28;45334;-76
2023/12/12 02:43:43;;;;;;;;;15.33;13.33;;;;;;;;5038486;28;45426;-76
2023/12/12 02:46:08;;;;;;;;;16.33;13.67;;;;;;;;5039096;28;45352;-76
2023/12/12 02:48:33;;;;;;;;;18.67;17.00;;;;;;;;5041837;28;45203;-76
2023/12/12 02:50:58;;;;;;;;;7.00;4.00;;;;;;;;5041681;28;46760;-76
2023/12/12 02:53:24;;;;;;;;;14.33;13.67;;;;;;;;5042220;28;45212;-76
2023/12/12 02:55:49;;;;;;;;;14.00;12.33;;;;;;;;5043156;28;45360;-76
2023/12/12 02:58:14;;;;;;;;;18.67;14.00;;;;;;;;5043346;28;45626;-76
2023/12/12 03:00:39;;;;;;;;;12.33;12.33;;;;;;;;5043618;28;45390;-76
2023/12/12 03:03:04;;;;;;;;;16.00;11.67;;;;;;;;5039557;28;45343;-76
2023/12/12 03:05:30;;;;;;;;;11.00;9.00;;;;;;;;5041149;28;46179;-76
2023/12/12 03:07:55;;;;;;;;;16.00;12.00;;;;;;;;5057301;28;45541;-76
2023/12/12 03:10:20;;;;;;;;;7.33;7.00;;;;;;;;5041385;28;46415;-76
2023/12/12 03:12:46;;;;;;;;;13.67;10.00;;;;;;;;5040265;28;45374;-76
2023/12/12 03:15:11;;;;;;;;;8.67;8.67;;;;;;;;5040871;28;45343;-76
2023/12/12 03:17:36;;;;;;;;;7.67;7.67;;;;;;;;5041382;28;45228;-76
2023/12/12 03:20:01;;;;;;;;;10.00;10.00;;;;;;;;5039103;28;46449;-76
2023/12/12 03:22:26;;;;;;;;;13.33;10.00;;;;;;;;5041478;28;45359;-76
2023/12/12 03:24:51;;;;;;;;;10.67;10.67;;;;;;;;5039756;28;44599;-75
2023/12/12 03:27:17;;;;;;;;;9.33;8.33;;;;;;;;5041535;28;45363;-76
2023/12/12 03:29:42;;;;;;;;;14.00;9.00;;;;;;;;5038994;28;45605;-76
2023/12/12 03:32:07;;;;;;;;;9.33;8.00;;;;;;;;5037635;28;45473;-76
2023/12/12 03:34:32;;;;;;;;;9.00;8.00;;;;;;;;5040010;28;45312;-76
2023/12/12 03:36:57;;;;;;;;;9.00;8.00;;;;;;;;5041828;28;45479;-76
2023/12/12 03:39:23;;;;;;;;;10.67;10.00;;;;;;;;5040154;28;45345;-77
2023/12/12 03:41:48;;;;;;;;;11.67;10.00;;;;;;;;5041203;28;45486;-76
2023/12/12 03:44:13;;;;;;;;;8.00;6.00;;;;;;;;5040473;28;45527;-76
2023/12/12 03:46:38;;;;;;;;;8.00;7.00;;;;;;;;5041376;28;45406;-76
2023/12/12 03:49:04;;;;;;;;;9.67;8.00;;;;;;;;5047472;28;46952;-76
2023/12/12 03:51:30;;;;;;;;;9.00;9.00;;;;;;;;5042059;28;45470;-76
2023/12/12 03:53:55;;;;;;;;;7.00;7.00;;;;;;;;5040065;28;45587;-76
2023/12/12 03:56:20;;;;;;;;;11.33;10.33;;;;;;;;5040588;28;45161;-76
2023/12/12 03:58:46;;;;;;;;;10.00;9.33;;;;;;;;5040851;28;46070;-76
2023/12/12 04:18:09;;;;;;;;;10.33;9.67;;;;;;;;5040556;28;74178;-77
2023/12/12 04:20:34;;;;;;;;;11.33;11.33;;;;;;;;5041306;28;45316;-77
2023/12/12 04:22:59;;;;;;;;;13.33;9.00;;;;;;;;5032385;28;45387;-76
2023/12/12 04:25:25;;;;;;;;;10.00;9.00;;;;;;;;5022568;28;45203;-77
2023/12/12 04:27:50;;;;;;;;;10.33;9.00;;;;;;;;5040838;28;46973;-77
2023/12/12 04:30:15;;;;;;;;;8.67;8.00;;;;;;;;5040151;28;45222;-75
2023/12/12 04:32:40;;;;;;;;;9.00;8.00;;;;;;;;5037193;28;45198;-75
2023/12/12 04:35:08;;;;;;;;;5.33;5.33;;;;;;;;5030343;28;44766;-75
2023/12/12 04:37:33;;;;;;;;;8.33;6.33;;;;;;;;5021313;28;46247;-75
2023/12/12 04:39:58;;;;;;;;;5.67;4.33;;;;;;;;5021332;28;44893;-75
2023/12/12 04:42:24;;;;;;;;;6.00;6.00;;;;;;;;5036110;28;45505;-75
2023/12/12 04:44:50;;;;;;;;;6.00;5.00;;;;;;;;5022883;28;45245;-75
2023/12/12 04:47:15;;;;;;;;;5.67;5.33;;;;;;;;5056090;28;48191;-75
2023/12/12 04:49:41;;;;;;;;;5.00;5.00;;;;;;;;5041153;28;45301;-75
2023/12/12 04:52:06;;;;;;;;;8.33;5.67;;;;;;;;5033554;28;45346;-75
2023/12/12 04:54:31;;;;;;;;;7.00;6.00;;;;;;;;5036439;28;47063;-75
2023/12/12 04:56:56;;;;;;;;;5.00;4.67;;;;;;;;5022264;28;45362;-75
2023/12/12 04:59:22;;;;;;;;;6.00;6.00;;;;;;;;5041089;28;45388;-75
2023/12/12 05:01:47;;;;;;;;;9.00;5.67;;;;;;;;5040906;28;45302;-75
2023/12/12 05:04:12;;;;;;;;;12.00;6.00;;;;;;;;5040955;28;45686;-75
2023/12/12 05:06:37;;;;;;;;;8.00;6.00;;;;;;;;5024603;28;46519;-75
2023/12/12 05:09:03;;;;;;;;;7.67;6.67;;;;;;;;5019874;28;45217;-75
2023/12/12 05:11:29;;;;;;;;;9.33;8.00;;;;;;;;5033914;28;45470;-75
2023/12/12 05:13:54;;;;;;;;;13.00;9.00;;;;;;;;5020964;28;45437;-75
2023/12/12 05:16:19;;;;;;;;;10.00;8.67;;;;;;;;5020600;28;46653;-75
2023/12/12 05:18:45;;;;;;;;;12.00;10.00;;;;;;;;5021004;28;45253;-75
2023/12/12 05:21:11;;;;;;;;;7.00;7.00;;;;;;;;5036113;28;45333;-75
2023/12/12 05:23:36;;;;;;;;;8.67;8.67;;;;;;;;5020753;28;45256;-75
2023/12/12 05:26:01;;;;;;;;;8.67;8.67;;;;;;;;5029545;28;45618;-75
2023/12/12 05:28:26;;;;;;;;;13.00;8.67;;;;;;;;5020625;28;45220;-75
2023/12/12 05:30:51;;;;;;;;;9.00;9.00;;;;;;;;5020798;28;45181;-75
2023/12/12 05:33:16;;;;;;;;;10.00;10.00;;;;;;;;5019173;28;45858;-75
2023/12/12 05:35:42;;;;;;;;;11.33;11.33;;;;;;;;5019341;28;48336;-74
2023/12/12 05:38:07;;;;;;;;;10.33;9.67;;;;;;;;5020625;28;45155;-74
2023/12/12 05:40:32;;;;;;;;;18.67;12.67;;;;;;;;5020096;28;45157;-73
2023/12/12 05:42:58;;;;;;;;;12.33;11.67;;;;;;;;5020244;28;45344;-73
2023/12/12 05:45:23;;;;;;;;;15.33;12.00;;;;;;;;5020367;28;45421;-72
2023/12/12 05:47:48;;;;;;;;;11.00;9.67;;;;;;;;5022647;28;45251;-72
2023/12/12 05:50:14;;;;;;;;;12.33;11.33;;;;;;;;5023372;28;45487;-73
2023/12/12 05:52:39;;;;;;;;;13.33;10.33;;;;;;;;5026006;28;45637;-73
2023/12/12 05:55:05;;;;;;;;;11.33;10.00;;;;;;;;5038291;28;45506;-72
2023/12/12 05:57:31;;;;;;;;;13.67;12.00;;;;;;;;5038852;28;45420;-72
2023/12/12 05:59:56;;;;;;;;;10.00;9.33;;;;;;;;5055260;28;45355;-73
2023/12/12 06:02:22;;;;;;;;;16.67;13.00;;;;;;;;5018758;28;46284;-73
2023/12/12 06:04:48;;;;;;;;;9.33;8.00;;;;;;;;5021814;28;45432;-73
2023/12/12 06:07:13;;;;;;;;;13.67;10.33;;;;;;;;5034772;28;45268;-74
2023/12/12 06:09:39;;;;;;;;;11.67;10.00;;;;;;;;5028172;28;45352;-74
2023/12/12 06:12:04;;;;;;;;;9.33;8.67;;;;;;;;5019448;28;45510;-72
2023/12/12 06:14:30;;;;;;;;;11.67;11.00;;;;;;;;5018409;28;48004;-74
2023/12/12 06:16:55;;;;;;;;;15.67;11.67;;;;;;;;5019430;28;45227;-72
2023/12/12 06:19:20;;;;;;;;;10.67;10.67;;;;;;;;5031664;28;45414;-73
2023/12/12 06:21:46;;;;;;;;;15.67;11.33;;;;;;;;5033701;28;45407;-73
2023/12/12 06:24:11;;;;;;;;;10.33;10.33;;;;;;;;5038921;28;45433;-73
2023/12/12 06:26:37;;;;;;;;;10.00;9.00;;;;;;;;5037742;28;45443;-73
2023/12/12 06:29:02;;;;;;;;;10.00;7.67;;;;;;;;5029474;28;45418;-73
2023/12/12 06:31:27;;;;;;;;;9.33;9.00;;;;;;;;5050996;28;45653;-73
2023/12/12 06:33:53;;;;;;;;;7.00;7.00;;;;;;;;5029171;28;47532;-74
2023/12/12 06:36:18;;;;;;;;;11.33;8.67;;;;;;;;5034944;28;45300;-73
2023/12/12 06:38:43;;;;;;;;;6.00;6.00;;;;;;;;5038780;28;45318;-73
2023/12/12 06:41:09;;;;;;;;;5.33;5.00;;;;;;;;5035292;28;45237;-74
2023/12/12 06:43:34;;;;;;;;;4.67;4.33;;;;;;;;5038931;28;45330;-74
2023/12/12 06:45:59;;;;;;;;;6.00;3.00;;;;;;;;5039125;28;45230;-74
2023/12/12 06:48:24;;;;;;;;;9.00;6.00;;;;;;;;5039076;28;45232;-73
2023/12/12 06:50:50;;;;;;;;;10.00;8.00;;;;;;;;5039063;28;45314;-74
2023/12/12 06:53:15;;;;;;;;;7.00;7.00;;;;;;;;5039281;28;45516;-73
2023/12/12 06:55:40;;;;;;;;;5.67;5.00;;;;;;;;5038991;28;45339;-72
2023/12/12 06:58:05;;;;;;;;;5.33;5.33;;;;;;;;5039204;28;45279;-74
2023/12/12 07:00:31;;;;;;;;;8.00;6.00;;;;;;;;5037654;28;46302;-74
2023/12/12 07:02:56;;;;;;;;;7.33;5.67;;;;;;;;5039049;28;45930;-74
2023/12/12 07:05:21;;;;;;;;;7.00;6.33;;;;;;;;5036916;28;45455;-73
2023/12/12 07:07:47;;;;;;;;;13.00;10.00;;;;;;;;5037620;28;45319;-73
2023/12/12 07:10:12;;;;;;;;;8.00;6.33;;;;;;;;5022985;28;45307;-75
2023/12/12 07:12:38;;;;;;;;;8.67;8.00;;;;;;;;5022643;28;45966;-73
2023/12/12 07:15:03;;;;;;;;;7.00;6.33;;;;;;;;5019682;28;45268;-74
2023/12/12 07:17:28;;;;;;;;;12.00;10.33;;;;;;;;5019414;28;45142;-75
2023/12/12 07:19:54;;;;;;;;;10.67;8.00;;;;;;;;5018970;28;45283;-75
2023/12/12 07:22:19;;;;;;;;;8.00;8.00;;;;;;;;5018935;28;45320;-76
2023/12/12 07:24:45;;;;;;;;;8.00;8.00;;;;;;;;5034245;28;45244;-75
2023/12/12 07:27:10;;;;;;;;;6.00;6.00;;;;;;;;5026886;28;45289;-75
2023/12/12 07:29:35;;;;;;;;;8.67;8.00;;;;;;;;5017802;28;46371;-76
2023/12/12 07:32:00;;;;;;;;;5.67;5.00;;;;;;;;5020514;28;45593;-74
2023/12/12 07:34:25;;;;;;;;;7.00;7.00;;;;;;;;5021462;28;45792;-75
2023/12/12 07:36:51;;;;;;;;;6.33;6.33;;;;;;;;5023173;28;45581;-74
2023/12/12 07:39:16;;;;;;;;;7.00;7.00;;;;;;;;5026378;28;45411;-76
2023/12/12 07:41:41;;;;;;;;;6.67;6.67;;;;;;;;5039844;28;45227;-76
2023/12/12 07:44:06;;;;;;;;;9.00;7.00;;;;;;;;5034587;28;45268;-75
2023/12/12 07:46:38;;;;;;;;;6.33;6.33;;;;;;;;5039073;28;45188;-74
2023/12/12 07:49:03;;;;;;;;;4.67;4.00;;;;;;;;5042264;28;45512;-75
2023/12/12 07:51:29;;;;;;;;;7.33;5.67;;;;;;;;5043430;28;45308;-75
2023/12/12 07:53:54;;;;;;;;;7.33;6.33;;;;;;;;5040849;28;45206;-76
2023/12/12 07:56:20;;;;;;;;;7.33;7.33;;;;;;;;5037523;28;45255;-76
2023/12/12 07:58:45;;;;;;;;;7.00;7.00;;;;;;;;5038035;28;45409;-76
2023/12/12 08:01:10;;;;;;;;;13.00;10.00;;;;;;;;5041610;28;46451;-75
2023/12/12 08:03:35;;;;;;;;;43.00;33.25;;;;;;;;5041502;28;45224;-75
2023/12/12 08:06:01;;;;;;;;;19.00;15.67;;;;;;;;5032008;28;45271;-75
2023/12/12 08:08:26;;;;;;;;;36.25;33.00;;;;;;;;5020953;28;45512;-76
2023/12/12 08:10:51;;;;;;;;;26.25;26.25;;;;;;;;5020997;28;46165;-75
2023/12/12 08:13:16;;;;;;;;;48.50;38.75;;;;;;;;5023844;28;45690;-76
2023/12/12 08:15:41;;;;;;;;;41.50;33.50;;;;;;;;5038187;28;45551;-76
2023/12/12 08:18:09;;;;;;;;;41.75;35.50;;;;;;;;5039453;28;45588;-75
2023/12/12 08:20:34;;;;;;;;;33.25;30.25;;;;;;;;5021597;28;45335;-76
2023/12/12 08:22:59;;;;;;;;;29.25;26.25;;;;;;;;5021516;28;45314;-76
2023/12/12 08:25:24;;;;;;;;;25.50;24.50;;;;;;;;5025647;28;45349;-76
2023/12/12 08:27:49;;;;;;;;;24.50;23.00;;;;;;;;5025425;28;45364;-76
2023/12/12 08:30:15;;;;;;;;;26.75;23.75;;;;;;;;5023942;28;46321;-75
2023/12/12 08:32:40;;;;;;;;;40.50;33.00;;;;;;;;5023441;28;45407;-75
2023/12/12 08:35:07;;;;;;;;;10.00;8.00;;;;;;;;5023687;28;45237;-76
2023/12/12 08:37:32;;;;;;;;;5.00;5.00;;;;;;;;5021474;28;45428;-75
2023/12/12 08:39:57;;;;;;;;;4.67;3.00;;;;;;;;5037077;28;47078;-76
2023/12/12 08:42:22;;;;;;;;;3.67;3.67;;;;;;;;5021596;28;45292;-76
2023/12/12 08:44:48;;;;;;;;;4.67;4.00;;;;;;;;5021553;28;45289;-76
2023/12/12 08:47:13;;;;;;;;;2.67;2.67;;;;;;;;5037022;28;45302;-75
2023/12/12 08:49:38;;;;;;;;;5.67;4.00;;;;;;;;5031859;28;45819;-76
2023/12/12 08:52:07;;;;;;;;;2.00;2.00;;;;;;;;5019528;28;45297;-76
2023/12/12 08:54:36;;;;;;;;;1.67;1.67;;;;;;;;5021411;28;45281;-75
2023/12/12 08:57:02;;;;;;;;;2.00;2.00;;;;;;;;5022916;28;45279;-75
2023/12/12 08:59:27;;;;;;;;;4.67;3.00;;;;;;;;5040949;28;46194;-76
2023/12/12 09:01:52;;;;;;;;;1.00;1.00;;;;;;;;5043109;28;45315;-76
2023/12/12 09:04:17;;;;;;;;;1.00;1.00;;;;;;;;5056072;28;45331;-75
2023/12/12 09:06:44;;;;;;;;;1.00;1.00;;;;;;;;5023764;28;45831;-75
2023/12/12 09:09:10;;;;;;;;;2.00;2.00;;;;;;;;5020897;28;45662;-76
2023/12/12 09:11:37;;;;;;;;;1.00;1.00;;;;;;;;5020472;28;45380;-78
2023/12/12 09:14:02;;;;;;;;;0.00;0.00;;;;;;;;5036436;28;45326;-76
2023/12/12 09:16:27;;;;;;;;;2.00;2.00;;;;;;;;5020843;28;45250;-77
2023/12/12 09:18:52;;;;;;;;;1.00;1.00;;;;;;;;5020756;28;46263;-77
2023/12/12 09:21:17;;;;;;;;;1.67;1.67;;;;;;;;5020553;28;45154;-77
2023/12/12 09:23:43;;;;;;;;;1.00;1.00;;;;;;;;5021024;28;45251;-75
2023/12/12 09:26:12;;;;;;;;;1.00;1.00;;;;;;;;5027275;28;45561;-76
2023/12/12 09:28:39;;;;;;;;;1.00;1.00;;;;;;;;5018956;28;46945;-75
2023/12/12 09:31:04;;;;;;;;;2.00;1.00;;;;;;;;5035565;28;45936;-76
2023/12/12 09:33:29;;;;;;;;;2.00;1.00;;;;;;;;5020622;28;45250;-75
2023/12/12 09:35:54;;;;;;;;;2.00;1.00;;;;;;;;5035999;28;45534;-77
2023/12/12 09:38:19;;;;;;;;;3.00;2.33;;;;;;;;5020798;28;45525;-78
2023/12/12 09:40:45;;;;;;;;;1.00;1.00;;;;;;;;5036104;28;45217;-78
2023/12/12 09:43:14;;;;;;;;;2.00;2.00;;;;;;;;5031919;28;45237;-79
2023/12/12 09:45:44;;;;;;;;;3.00;1.00;;;;;;;;5020658;28;45307;-76
2023/12/12 09:48:10;;;;;;;;;0.00;0.00;;;;;;;;5020814;28;45325;-75
2023/12/12 09:50:36;;;;;;;;;5.00;4.00;;;;;;;;5023900;28;45166;-76
2023/12/12 09:53:01;;;;;;;;;3.00;3.00;;;;;;;;5024230;28;44899;-75
2023/12/12 09:55:28;;;;;;;;;5.67;5.67;;;;;;;;5023199;28;45205;-75
2023/12/12 09:57:53;;;;;;;;;1.00;1.00;;;;;;;;5015518;28;45323;-76
2023/12/12 10:00:20;;;;;;;;;1.00;1.00;;;;;;;;5020666;28;45350;-76
2023/12/12 10:02:46;;;;;;;;;0.00;0.00;;;;;;;;5020994;28;45397;-75
2023/12/12 10:05:12;;;;;;;;;1.33;1.33;;;;;;;;5019941;28;45386;-75
2023/12/12 10:07:38;;;;;;;;;1.00;1.00;;;;;;;;5018915;28;47933;-75
2023/12/12 10:10:07;;;;;;;;;2.33;1.00;;;;;;;;5019922;28;44607;-76
2023/12/12 10:12:32;;;;;;;;;2.67;2.00;;;;;;;;5020141;28;45222;-76
2023/12/12 10:14:58;;;;;;;;;1.00;1.00;;;;;;;;5019890;28;45178;-76
2023/12/12 10:17:25;;;;;;;;;0.00;0.00;;;;;;;;5019923;28;45359;-76
2023/12/12 10:20:00;;;;;;;;;1.00;1.00;;;;;;;;5019958;28;45260;-76
2023/12/12 10:22:29;;;;;;;;;5.33;4.00;;;;;;;;5020004;28;45269;-76
2023/12/12 10:24:54;;;;;;;;;2.33;0.00;;;;;;;;5019846;28;45620;-76
2023/12/12 10:27:20;;;;;;;;;0.00;0.00;;;;;;;;5019626;28;45420;-76
2023/12/12 10:29:45;;;;;;;;;0.00;0.00;;;;;;;;5019540;28;45272;-75
2023/12/12 10:32:12;;;;;;;;;0.67;0.67;;;;;;;;5035044;28;45336;-76
2023/12/12 10:34:37;;;;;;;;;1.00;1.00;;;;;;;;5019372;28;46614;-76
2023/12/12 10:37:02;;;;;;;;;3.67;0.00;;;;;;;;5019732;28;46209;-75
2023/12/12 10:39:28;;;;;;;;;1.00;1.00;;;;;;;;5018534;28;45849;-76
2023/12/12 10:41:55;;;;;;;;;2.00;1.00;;;;;;;;5019859;28;45437;-76
2023/12/12 10:44:21;;;;;;;;;0.00;0.00;;;;;;;;5020236;28;45308;-76
2023/12/12 10:46:49;;;;;;;;;2.00;1.00;;;;;;;;5018071;28;47079;-75
2023/12/12 10:49:15;;;;;;;;;2.33;1.67;;;;;;;;5019365;28;45422;-75
2023/12/12 10:51:43;;;;;;;;;0.33;0.00;;;;;;;;5019811;28;45248;-76
2023/12/12 10:54:09;;;;;;;;;1.00;0.67;;;;;;;;5019526;28;45356;-76
2023/12/12 10:56:35;;;;;;;;;0.67;0.67;;;;;;;;5019250;28;45352;-75
2023/12/12 10:59:02;;;;;;;;;1.00;1.00;;;;;;;;5019101;28;45283;-76
2023/12/12 11:01:28;;;;;;;;;1.33;1.00;;;;;;;;5019703;28;45340;-76
2023/12/12 11:03:57;;;;;;;;;1.33;0.00;;;;;;;;5034281;28;45803;-76
2023/12/12 11:06:23;;;;;;;;;2.33;1.33;;;;;;;;5019997;28;45241;-76
2023/12/12 11:08:48;;;;;;;;;0.00;0.00;;;;;;;;5037919;28;45229;-76
2023/12/12 11:11:16;;;;;;;;;1.00;1.00;;;;;;;;5023401;28;45352;-75
2023/12/12 11:13:42;;;;;;;;;2.00;0.67;;;;;;;;5023792;28;45340;-76
2023/12/12 11:16:09;;;;;;;;;1.00;0.67;;;;;;;;5040404;28;47162;-75
2023/12/12 11:18:39;;;;;;;;;2.00;0.00;;;;;;;;5018883;28;45314;-76
2023/12/12 11:21:04;;;;;;;;;1.00;1.00;;;;;;;;5002822;28;45476;-76
2023/12/12 11:23:42;;;;;;;;;1.00;1.00;;;;;;;;5003238;28;45302;-76
2023/12/12 11:26:07;;;;;;;;;1.00;1.00;;;;;;;;5013378;28;45380;-82
2023/12/12 11:28:35;;;;;;;;;0.00;0.00;;;;;;;;5022739;28;45340;-76
2023/12/12 11:31:00;;;;;;;;;2.00;1.00;;;;;;;;5022932;28;45204;-75
2023/12/12 11:33:26;;;;;;;;;3.00;1.50;;;;;;;;5022708;28;45399;-76
2023/12/12 11:35:51;;;;;;;;;1.67;1.67;;;;;;;;5023019;28;46552;-77
2023/12/12 11:38:28;;;;;;;;;3.67;1.00;;;;;;;;5022740;28;45190;-77
2023/12/12 11:41:09;;;;;;;;;0.67;0.67;;;;;;;;5020820;28;46477;-77
2023/12/12 11:43:35;;;;;;;;;4.33;3.00;;;;;;;;5022640;28;45513;-77
2023/12/12 11:46:13;;;;;;;;;2.00;2.00;;;;;;;;5018239;28;45212;-77
2023/12/12 11:48:39;;;;;;;;;7.67;5.33;;;;;;;;5017340;28;45364;-77
2023/12/12 11:51:24;;;;;;;;;6.67;5.00;;;;;;;;5022727;28;45320;-77
2023/12/12 11:53:50;;;;;;;;;2.00;2.00;;;;;;;;5021702;28;45392;-77
2023/12/12 11:56:15;;;;;;;;;2.00;2.00;;;;;;;;5021845;28;45443;-77
2023/12/12 11:58:40;;;;;;;;;3.00;2.00;;;;;;;;5018995;28;45353;-76
2023/12/12 12:01:05;;;;;;;;;1.00;1.00;;;;;;;;5017417;28;45372;-75
2023/12/12 12:03:31;;;;;;;;;3.00;1.33;;;;;;;;5001993;28;45564;-75
2023/12/12 12:05:56;;;;;;;;;1.00;1.00;;;;;;;;5013400;28;45592;-75
2023/12/12 12:08:21;;;;;;;;;1.00;1.00;;;;;;;;5021951;28;45321;-73
2023/12/12 12:10:58;;;;;;;;;1.00;1.00;;;;;;;;5021857;28;45297;-73
2023/12/12 12:13:35;;;;;;;;;2.00;1.00;;;;;;;;5020359;28;47031;-74
2023/12/12 12:16:01;;;;;;;;;1.00;1.00;;;;;;;;5021687;28;45543;-75
2023/12/12 12:18:26;;;;;;;;;1.33;1.33;;;;;;;;5021024;28;45255;-74
2023/12/12 12:20:51;;;;;;;;;1.33;1.33;;;;;;;;5021827;28;45226;-74
2023/12/12 12:23:17;;;;;;;;;4.00;2.00;;;;;;;;5019949;28;46730;-76
2023/12/12 12:25:42;;;;;;;;;1.67;1.00;;;;;;;;5021420;28;45222;-76
2023/12/12 12:28:07;;;;;;;;;3.00;3.00;;;;;;;;5021560;28;45348;-77
2023/12/12 12:30:43;;;;;;;;;4.00;1.67;;;;;;;;5023870;28;45117;-77
2023/12/12 12:33:09;;;;;;;;;3.33;3.00;;;;;;;;5023535;28;45237;-77
2023/12/12 12:35:35;;;;;;;;;2.00;2.00;;;;;;;;5024129;28;45936;-76
2023/12/12 12:38:00;;;;;;;;;6.33;4.33;;;;;;;;5021813;28;45306;-78
2023/12/12 12:40:36;;;;;;;;;3.00;1.00;;;;;;;;5022011;28;45297;-76
2023/12/12 12:43:04;;;;;;;;;2.67;1.00;;;;;;;;5021511;28;45350;-76
2023/12/12 12:45:29;;;;;;;;;4.67;3.67;;;;;;;;5021297;28;45503;-76
2023/12/12 12:47:55;;;;;;;;;9.00;5.00;;;;;;;;5020054;28;45247;-75
2023/12/12 12:50:20;;;;;;;;;5.33;3.00;;;;;;;;5021179;28;45211;-76
2023/12/12 12:52:45;;;;;;;;;11.67;8.33;;;;;;;;5016887;28;45723;-77
2023/12/12 12:55:10;;;;;;;;;3.67;3.67;;;;;;;;5020423;28;45421;-76
2023/12/12 12:57:36;;;;;;;;;11.00;8.67;;;;;;;;5020212;28;45454;-76
2023/12/12 13:00:02;;;;;;;;;2.00;2.00;;;;;;;;5018876;28;45197;-76
2023/12/12 13:02:27;;;;;;;;;2.33;2.33;;;;;;;;5016871;28;45360;-76
2023/12/12 13:04:54;;;;;;;;;6.67;5.33;;;;;;;;5019948;28;46357;-76
2023/12/12 13:07:21;;;;;;;;;2.67;2.00;;;;;;;;5017913;28;45482;-77
2023/12/12 13:09:47;;;;;;;;;2.33;2.33;;;;;;;;5021277;28;45295;-78
2023/12/12 13:12:12;;;;;;;;;2.67;2.00;;;;;;;;5035925;28;45506;-78
2023/12/12 13:14:37;;;;;;;;;2.00;2.00;;;;;;;;5020736;28;45317;-78
2023/12/12 13:17:03;;;;;;;;;2.33;2.00;;;;;;;;5021065;28;45301;-79
2023/12/12 13:19:28;;;;;;;;;2.00;1.33;;;;;;;;5021187;28;45352;-78
2023/12/12 13:21:54;;;;;;;;;3.33;2.33;;;;;;;;5036012;28;46194;-76
2023/12/12 13:24:20;;;;;;;;;1.67;1.67;;;;;;;;5021015;28;45207;-81
2023/12/12 13:26:45;;;;;;;;;2.00;1.00;;;;;;;;5020446;28;45259;-79
2023/12/12 13:29:10;;;;;;;;;1.33;1.33;;;;;;;;5020169;28;45404;-77
2023/12/12 13:31:36;;;;;;;;;3.00;1.00;;;;;;;;5020800;28;45210;-78
2023/12/12 13:34:01;;;;;;;;;2.67;1.67;;;;;;;;5020578;28;45294;-79
2023/12/12 13:36:26;;;;;;;;;4.00;1.00;;;;;;;;5020742;28;45232;-79
2023/12/12 13:38:54;;;;;;;;;2.33;1.67;;;;;;;;5023882;28;45376;-79
2023/12/12 13:41:19;;;;;;;;;2.00;1.00;;;;;;;;5000897;28;45455;-79
2023/12/12 13:43:44;;;;;;;;;1.33;1.00;;;;;;;;5014085;28;45323;-79
2023/12/12 13:46:09;;;;;;;;;0.00;0.00;;;;;;;;5014948;28;45368;-80
2023/12/12 13:48:35;;;;;;;;;3.67;2.00;;;;;;;;5002290;28;44768;-79
2023/12/12 13:51:00;;;;;;;;;2.00;2.00;;;;;;;;5003117;28;45340;-80
2023/12/12 13:53:26;;;;;;;;;1.33;1.00;;;;;;;;5003575;28;45545;-80
2023/12/12 13:55:52;;;;;;;;;2.67;2.00;;;;;;;;5001620;28;45296;-80
2023/12/12 13:58:20;;;;;;;;;1.00;1.00;;;;;;;;5013586;28;45406;-80
2023/12/12 14:00:45;;;;;;;;;3.00;0.00;;;;;;;;5020040;28;45178;-80
2023/12/12 14:03:10;;;;;;;;;5.33;1.00;;;;;;;;5020058;28;45355;-80
2023/12/12 14:05:36;;;;;;;;;2.00;1.33;;;;;;;;5019682;28;45371;-80
2023/12/12 14:08:01;;;;;;;;;1.33;1.00;;;;;;;;5020496;28;45264;-80
2023/12/12 14:10:26;;;;;;;;;1.67;1.33;;;;;;;;5019922;28;45719;-80
2023/12/12 14:12:51;;;;;;;;;2.00;1.00;;;;;;;;5020040;28;45183;-80
2023/12/12 14:15:17;;;;;;;;;2.67;2.00;;;;;;;;5020164;28;45316;-81
2023/12/12 14:17:42;;;;;;;;;0.67;0.67;;;;;;;;5020359;28;45135;-80
2023/12/12 14:20:08;;;;;;;;;2.67;1.00;;;;;;;;5018667;28;45699;-80
2023/12/12 14:22:33;;;;;;;;;2.67;1.00;;;;;;;;5018753;28;46864;-80
2023/12/12 14:24:59;;;;;;;;;2.33;1.00;;;;;;;;5019697;28;45311;-80
2023/12/12 14:27:24;;;;;;;;;1.00;1.00;;;;;;;;5018807;28;45358;-80
2023/12/12 14:29:50;;;;;;;;;4.00;1.00;;;;;;;;5019918;28;45471;-80
2023/12/12 14:32:18;;;;;;;;;3.00;2.00;;;;;;;;5020100;28;45655;-80
2023/12/12 14:34:44;;;;;;;;;4.00;1.00;;;;;;;;5018368;28;45359;-81
2023/12/12 14:37:11;;;;;;;;;3.67;1.00;;;;;;;;5020064;28;45283;-81
2023/12/12 14:39:36;;;;;;;;;2.00;1.00;;;;;;;;5035004;28;46397;-81
2023/12/12 14:42:02;;;;;;;;;2.67;2.00;;;;;;;;5025669;28;45452;-81